createdAt,value
2019-01-23T00:01:33.375Z,44.47
2019-01-23T00:04:00.356Z,39.90
2019-01-23T00:06:27.334Z,40.53
2019-01-23T00:08:54.427Z,39.00
2019-01-23T00:11:22.611Z,39.40
2019-01-23T00:13:49.991Z,40.73
2019-01-23T00:16:17.192Z,37.77
2019-01-23T00:18:44.359Z,42.43
2019-01-23T00:21:11.612Z,45.87
2019-01-23T00:23:38.912Z,38.07
2019-01-23T00:26:06.244Z,41.63
2019-01-23T00:28:33.472Z,45.60
2019-01-23T00:31:00.502Z,43.87
2019-01-23T00:33:27.779Z,43.53
2019-01-23T00:35:54.931Z,40.47
2019-01-23T00:38:22.052Z,45.07
2019-01-23T00:40:49.011Z,42.20
2019-01-23T00:43:16.623Z,42.93
2019-01-23T00:45:43.712Z,42.33
2019-01-23T00:48:11.195Z,40.90
2019-01-23T00:50:38.487Z,44.50
2019-01-23T00:53:05.681Z,47.63
2019-01-23T00:55:32.782Z,44.97
2019-01-23T00:58:00.187Z,41.57
2019-01-23T01:00:27.474Z,45.03
2019-01-23T01:02:54.925Z,43.53
2019-01-23T01:05:23.351Z,44.73
2019-01-23T01:07:51.304Z,42.10
2019-01-23T01:10:18.713Z,44.83
2019-01-23T01:12:46.306Z,46.13
2019-01-23T01:15:13.971Z,45.93
2019-01-23T01:17:41.288Z,45.03
2019-01-23T01:20:08.926Z,47.17
2019-01-23T01:22:36.203Z,44.47
2019-01-23T01:25:05.269Z,43.27
2019-01-23T01:27:33.072Z,47.47
2019-01-23T01:30:00.295Z,51.53
2019-01-23T01:32:27.569Z,47.13
2019-01-23T01:34:54.690Z,48.83
2019-01-23T01:37:21.759Z,49.90
2019-01-23T01:39:48.777Z,49.57
2019-01-23T01:42:15.971Z,47.77
2019-01-23T01:44:43.322Z,51.50
2019-01-23T01:47:10.474Z,47.83
2019-01-23T01:49:37.466Z,49.23
2019-01-23T01:52:04.792Z,45.17
2019-01-23T01:54:32.233Z,51.47
2019-01-23T01:56:59.371Z,50.00
2019-01-23T01:59:26.456Z,49.87
2019-01-23T02:01:54.547Z,53.00
2019-01-23T02:04:21.483Z,52.20
2019-01-23T02:06:48.441Z,51.77
2019-01-23T02:09:15.602Z,53.87
2019-01-23T02:11:42.649Z,56.93
2019-01-23T02:14:09.659Z,53.00
2019-01-23T02:16:37.074Z,58.10
2019-01-23T02:19:04.076Z,51.03
2019-01-23T02:21:31.549Z,53.47
2019-01-23T02:23:58.730Z,50.77
2019-01-23T02:26:26.113Z,51.03
2019-01-23T02:28:53.236Z,46.63
2019-01-23T02:31:20.866Z,53.17
2019-01-23T02:33:47.945Z,53.53
2019-01-23T02:36:15.040Z,47.97
2019-01-23T02:38:42.523Z,50.67
2019-01-23T02:41:09.955Z,53.83
2019-01-23T02:43:37.671Z,51.07
2019-01-23T02:46:05.510Z,51.23
2019-01-23T02:48:32.581Z,52.50
2019-01-23T02:50:59.572Z,52.57
2019-01-23T02:53:26.883Z,52.27
2019-01-23T02:55:54.108Z,48.37
2019-01-23T02:58:21.129Z,55.70
2019-01-23T03:00:48.202Z,55.40
2019-01-23T03:03:15.536Z,51.90
2019-01-23T03:05:42.577Z,52.37
2019-01-23T03:08:09.863Z,52.00
2019-01-23T03:10:37.371Z,53.37
2019-01-23T03:13:04.639Z,55.80
2019-01-23T03:15:31.605Z,52.83
2019-01-23T03:17:58.740Z,57.37
2019-01-23T03:20:25.928Z,55.60
2019-01-23T03:22:53.546Z,54.10
2019-01-23T03:25:20.689Z,51.67
2019-01-23T03:27:48.002Z,54.57
2019-01-23T03:30:17.742Z,58.30
2019-01-23T03:32:44.992Z,53.07
2019-01-23T03:35:12.696Z,54.37
2019-01-23T03:37:39.948Z,52.70
2019-01-23T03:40:10.248Z,55.93
2019-01-23T03:42:37.487Z,56.10
2019-01-23T03:45:06.606Z,55.33
2019-01-23T03:47:33.631Z,56.63
2019-01-23T03:50:00.780Z,51.67
2019-01-23T03:52:28.987Z,56.57
2019-01-23T03:54:56.269Z,57.53
2019-01-23T03:57:23.679Z,53.03
2019-01-23T03:59:51.088Z,56.07
2019-01-23T04:02:18.254Z,52.30
2019-01-23T04:04:45.329Z,57.60
2019-01-23T04:07:12.722Z,62.50
2019-01-23T04:09:39.871Z,60.63
2019-01-23T04:12:07.055Z,56.87
2019-01-23T04:14:34.064Z,55.77
2019-01-23T04:17:01.310Z,59.67
2019-01-23T04:19:28.342Z,62.33
2019-01-23T04:21:55.385Z,62.20
2019-01-23T04:24:22.771Z,57.37
2019-01-23T04:26:49.750Z,58.60
2019-01-23T04:29:16.952Z,56.70
2019-01-23T04:31:43.907Z,60.07
2019-01-23T04:34:11.363Z,57.90
2019-01-23T04:36:38.334Z,61.97
2019-01-23T04:39:07.143Z,60.17
2019-01-23T04:41:34.743Z,60.57
2019-01-23T04:44:01.701Z,56.87
2019-01-23T04:46:28.679Z,59.13
2019-01-23T04:48:55.710Z,59.87
2019-01-23T04:51:42.346Z,58.90
2019-01-23T04:54:13.287Z,59.50
2019-01-23T04:56:40.351Z,56.40
2019-01-23T04:59:07.322Z,59.63
2019-01-23T05:01:34.712Z,61.63
2019-01-23T05:04:02.068Z,60.50
2019-01-23T05:06:29.070Z,62.50
2019-01-23T05:08:56.058Z,56.03
2019-01-23T05:11:23.734Z,62.30
2019-01-23T05:13:51.079Z,64.87
2019-01-23T05:16:18.095Z,63.67
2019-01-23T05:18:45.172Z,62.87
2019-01-23T05:21:12.610Z,62.60
2019-01-23T05:23:39.665Z,59.47
2019-01-23T05:26:06.772Z,62.97
2019-01-23T05:28:33.954Z,58.63
2019-01-23T05:31:01.027Z,61.60
2019-01-23T05:33:28.071Z,59.20
2019-01-23T05:35:55.347Z,60.30
2019-01-23T05:38:22.318Z,57.53
2019-01-23T05:40:49.291Z,59.43
2019-01-23T05:43:16.722Z,60.63
2019-01-23T05:45:43.707Z,62.63
2019-01-23T05:48:10.666Z,61.73
2019-01-23T05:50:37.655Z,66.30
2019-01-23T05:53:05.379Z,61.33
2019-01-23T05:55:32.935Z,58.90
2019-01-23T05:57:59.987Z,63.03
2019-01-23T06:00:27.241Z,60.07
2019-01-23T06:02:54.248Z,66.47
2019-01-23T06:05:22.154Z,62.10
2019-01-23T06:07:49.255Z,61.30
2019-01-23T06:10:16.880Z,56.77
2019-01-23T06:12:44.490Z,62.40
2019-01-23T06:15:12.158Z,60.40
2019-01-23T06:17:39.555Z,61.60
2019-01-23T06:20:09.231Z,59.20
2019-01-23T06:22:36.266Z,62.43
2019-01-23T06:25:04.691Z,59.20
2019-01-23T06:27:31.907Z,56.77
2019-01-23T06:29:59.429Z,61.60
2019-01-23T06:32:26.531Z,66.63
2019-01-23T06:34:53.625Z,56.20
2019-01-23T06:37:20.686Z,56.60
2019-01-23T06:39:47.931Z,60.10
2019-01-23T06:42:15.067Z,61.97
2019-01-23T06:44:42.049Z,60.53
2019-01-23T06:47:09.059Z,65.33
2019-01-23T06:49:36.772Z,66.77
2019-01-23T06:52:03.888Z,66.00
2019-01-23T06:54:30.998Z,60.80
2019-01-23T06:56:58.285Z,55.70
2019-01-23T06:59:25.583Z,62.57
2019-01-23T07:01:52.705Z,61.30
2019-01-23T07:04:19.762Z,58.33
2019-01-23T07:06:46.771Z,63.23
2019-01-23T07:09:14.186Z,56.97
2019-01-23T07:11:41.358Z,62.07
2019-01-23T07:14:09.562Z,62.93
2019-01-23T07:16:36.815Z,57.63
2019-01-23T07:19:04.301Z,61.33
2019-01-23T07:21:31.254Z,62.63
2019-01-23T07:23:58.370Z,61.43
2019-01-23T07:26:26.383Z,59.47
2019-01-23T07:28:53.805Z,62.87
2019-01-23T07:31:20.852Z,62.00
2019-01-23T07:33:47.835Z,58.87
2019-01-23T07:36:14.831Z,56.33
2019-01-23T07:38:41.891Z,57.73
2019-01-23T07:41:08.892Z,55.37
2019-01-23T07:43:36.136Z,57.60
2019-01-23T07:46:03.978Z,59.87
2019-01-23T07:48:31.025Z,56.60
2019-01-23T07:50:58.050Z,63.20
2019-01-23T07:53:25.089Z,62.73
2019-01-23T07:55:52.194Z,60.90
2019-01-23T07:58:19.318Z,61.63
2019-01-23T08:00:46.557Z,57.70
2019-01-23T08:03:13.538Z,59.47
2019-01-23T08:05:40.553Z,62.13
2019-01-23T08:08:07.621Z,65.73
2019-01-23T08:10:34.595Z,56.77
2019-01-23T08:13:01.595Z,66.73
2019-01-23T08:15:33.382Z,59.63
2019-01-23T08:18:00.474Z,58.63
2019-01-23T08:20:27.683Z,58.90
2019-01-23T08:22:54.798Z,64.60
2019-01-23T08:25:22.188Z,61.43
2019-01-23T08:27:49.365Z,59.43
2019-01-23T08:30:18.247Z,64.87
2019-01-23T08:32:45.620Z,60.03
2019-01-23T08:35:13.463Z,56.17
2019-01-23T08:37:40.560Z,57.57
2019-01-23T08:40:09.945Z,61.47
2019-01-23T08:42:37.190Z,59.00
2019-01-23T08:45:05.158Z,62.53
2019-01-23T08:47:32.258Z,57.83
2019-01-23T08:49:59.563Z,58.13
2019-01-23T08:52:26.535Z,56.77
2019-01-23T08:54:53.523Z,51.83
2019-01-23T08:57:20.554Z,59.93
2019-01-23T08:59:47.532Z,59.17
2019-01-23T09:02:14.547Z,58.70
2019-01-23T09:04:41.539Z,59.63
2019-01-23T09:07:08.524Z,58.63
2019-01-23T09:09:35.863Z,57.53
2019-01-23T09:12:03.347Z,55.83
2019-01-23T09:14:30.815Z,58.33
2019-01-23T09:16:58.491Z,55.60
2019-01-23T09:19:25.824Z,55.17
2019-01-23T09:21:53.009Z,51.03
2019-01-23T09:24:20.327Z,57.90
2019-01-23T09:26:47.318Z,56.73
2019-01-23T09:29:14.430Z,54.73
2019-01-23T09:32:06.301Z,56.00
2019-01-23T09:34:39.044Z,62.07
2019-01-23T09:37:24.628Z,53.40
2019-01-23T09:39:57.985Z,60.50
2019-01-23T09:42:53.909Z,61.90
2019-01-23T09:46:05.050Z,58.70
2019-01-23T09:49:02.255Z,65.00
2019-01-23T09:52:10.057Z,58.07
2019-01-23T09:54:37.032Z,56.53
2019-01-23T09:57:04.458Z,58.47
2019-01-23T09:59:31.941Z,64.03
2019-01-23T10:01:59.009Z,57.57
2019-01-23T10:04:26.058Z,60.83
2019-01-23T10:06:53.630Z,69.23
2019-01-23T10:09:20.719Z,58.10
2019-01-23T10:11:48.115Z,62.17
2019-01-23T10:14:15.556Z,59.13
2019-01-23T10:16:43.123Z,63.10
2019-01-23T10:19:10.287Z,66.57
2019-01-23T10:21:37.597Z,60.13
2019-01-23T10:24:04.798Z,63.23
2019-01-23T10:26:31.832Z,61.57
2019-01-23T10:28:58.954Z,64.50
2019-01-23T10:31:25.998Z,68.17
2019-01-23T10:33:53.147Z,58.23
2019-01-23T10:36:20.396Z,60.10
2019-01-23T10:38:47.519Z,61.60
2019-01-23T10:41:14.634Z,63.63
2019-01-23T10:43:41.887Z,64.17
2019-01-23T10:46:09.047Z,62.30
2019-01-23T10:48:38.123Z,65.27
2019-01-23T10:51:05.380Z,60.07
2019-01-23T10:53:32.541Z,65.17
2019-01-23T10:56:00.130Z,60.90
2019-01-23T10:58:35.301Z,67.63
2019-01-23T11:01:04.925Z,69.63
2019-01-23T11:03:32.216Z,66.20
2019-01-23T11:05:59.397Z,62.23
2019-01-23T11:08:26.554Z,68.23
2019-01-23T11:10:53.566Z,55.90
2019-01-23T11:13:20.779Z,65.20
2019-01-23T11:15:47.826Z,66.10
2019-01-23T11:18:14.874Z,64.20
2019-01-23T11:20:41.920Z,61.77
2019-01-23T11:23:09.110Z,72.27
2019-01-23T11:25:36.191Z,61.97
2019-01-23T11:28:03.670Z,70.63
2019-01-23T11:30:30.762Z,61.10
2019-01-23T11:32:57.770Z,59.23
2019-01-23T11:35:25.039Z,61.17
2019-01-23T11:37:52.350Z,60.97
2019-01-23T11:40:22.207Z,66.37
2019-01-23T11:42:49.487Z,62.50
2019-01-23T11:45:16.588Z,65.17
2019-01-23T11:47:44.009Z,61.63
2019-01-23T11:50:12.131Z,62.50
2019-01-23T11:52:39.442Z,63.13
2019-01-23T11:55:07.656Z,61.00
2019-01-23T11:57:34.714Z,61.03
2019-01-23T12:00:01.956Z,63.97
2019-01-23T12:02:30.919Z,63.60
2019-01-23T12:04:58.436Z,66.43
2019-01-23T12:07:25.587Z,66.83
2019-01-23T12:09:52.638Z,71.67
2019-01-23T12:12:19.638Z,69.17
2019-01-23T12:14:47.698Z,63.83
2019-01-23T12:17:14.712Z,63.13
2019-01-23T12:19:41.938Z,64.50
2019-01-23T12:22:08.933Z,63.07
2019-01-23T12:24:35.907Z,65.40
2019-01-23T12:27:03.316Z,61.60
2019-01-23T12:29:30.604Z,68.93
2019-01-23T12:31:58.534Z,63.83
2019-01-23T12:34:25.590Z,64.77
2019-01-23T12:36:52.630Z,62.47
2019-01-23T12:39:19.629Z,65.33
2019-01-23T12:41:47.027Z,65.53
2019-01-23T12:44:14.175Z,68.93
2019-01-23T12:46:41.222Z,68.07
2019-01-23T12:49:08.441Z,66.13
2019-01-23T12:51:35.418Z,66.47
2019-01-23T12:54:02.891Z,76.40
2019-01-23T12:56:30.072Z,63.27
2019-01-23T12:58:57.227Z,73.50
2019-01-23T13:01:24.375Z,69.27
2019-01-23T13:03:51.793Z,66.13
2019-01-23T13:06:19.946Z,67.07
2019-01-23T13:08:47.398Z,68.00
2019-01-23T13:11:14.607Z,65.37
2019-01-23T13:13:41.887Z,70.13
2019-01-23T13:16:09.191Z,65.70
2019-01-23T13:18:36.664Z,61.67
2019-01-23T13:21:03.999Z,64.63
2019-01-23T13:23:31.045Z,56.77
2019-01-23T13:25:58.122Z,68.13
2019-01-23T13:28:28.220Z,67.67
2019-01-23T13:30:55.201Z,67.57
2019-01-23T13:33:22.290Z,66.53
2019-01-23T13:35:49.265Z,64.97
2019-01-23T13:38:17.743Z,62.33
2019-01-23T13:40:45.068Z,66.73
2019-01-23T13:43:12.133Z,65.47
2019-01-23T13:45:39.299Z,61.30
2019-01-23T13:48:08.339Z,65.77
2019-01-23T13:50:35.709Z,64.57
2019-01-23T13:53:02.996Z,67.13
2019-01-23T13:55:30.322Z,65.53
2019-01-23T13:57:57.397Z,63.93
2019-01-23T14:00:27.396Z,62.07
2019-01-23T14:02:54.546Z,67.50
2019-01-23T14:05:21.927Z,62.87
2019-01-23T14:07:49.383Z,66.20
2019-01-23T14:10:16.896Z,66.70
2019-01-23T14:12:44.305Z,65.20
2019-01-23T14:15:18.230Z,63.80
2019-01-23T14:17:45.713Z,58.60
2019-01-23T14:20:13.254Z,66.27
2019-01-23T14:22:40.333Z,71.33
2019-01-23T14:25:09.223Z,66.03
2019-01-23T14:27:36.235Z,64.50
2019-01-23T14:30:05.594Z,62.73
2019-01-23T14:32:32.723Z,61.47
2019-01-23T14:35:00.238Z,62.40
2019-01-23T14:37:27.401Z,63.47
2019-01-23T14:39:54.404Z,66.13
2019-01-23T14:42:21.362Z,58.33
2019-01-23T14:44:48.366Z,60.07
2019-01-23T14:47:15.335Z,79.03
2019-01-23T14:49:42.416Z,59.53
2019-01-23T14:52:09.431Z,65.07
2019-01-23T14:54:36.567Z,64.93
2019-01-23T14:57:03.832Z,62.07
2019-01-23T14:59:30.825Z,68.90
2019-01-23T15:01:57.973Z,64.30
2019-01-23T15:04:25.641Z,67.97
2019-01-23T15:06:52.626Z,66.07
2019-01-23T15:09:19.711Z,66.00
2019-01-23T15:11:46.851Z,68.53
2019-01-23T15:14:13.872Z,66.70
2019-01-23T15:16:40.942Z,61.00
2019-01-23T15:19:08.050Z,68.50
2019-01-23T15:21:35.336Z,66.47
2019-01-23T15:24:02.589Z,70.90
2019-01-23T15:26:29.811Z,71.87
2019-01-23T15:28:56.986Z,69.03
2019-01-23T15:31:24.401Z,68.20
2019-01-23T15:33:51.431Z,71.33
2019-01-23T15:36:18.578Z,67.80
2019-01-23T15:38:45.623Z,70.33
2019-01-23T15:41:12.867Z,71.53
2019-01-23T15:43:39.978Z,69.93
2019-01-23T15:46:07.117Z,67.73
2019-01-23T15:48:34.791Z,69.73
2019-01-23T15:51:01.796Z,73.60
2019-01-23T15:53:28.953Z,64.00
2019-01-23T15:55:57.124Z,71.40
2019-01-23T15:58:24.730Z,69.83
2019-01-23T16:00:51.783Z,74.27
2019-01-23T16:03:18.908Z,70.23
2019-01-23T16:05:46.281Z,70.87
2019-01-23T16:08:13.351Z,72.23
2019-01-23T16:10:40.880Z,71.10
2019-01-23T16:13:07.937Z,65.90
2019-01-23T16:15:35.291Z,82.93
2019-01-23T16:18:02.627Z,71.40
2019-01-23T16:20:29.677Z,72.83
2019-01-23T16:22:57.310Z,70.03
2019-01-23T16:25:24.387Z,70.63
2019-01-23T16:27:52.341Z,67.93
2019-01-23T16:30:31.765Z,71.80
2019-01-23T16:32:59.351Z,76.67
2019-01-23T16:35:27.511Z,73.23
2019-01-23T16:37:54.747Z,78.43
2019-01-23T16:40:22.030Z,61.40
2019-01-23T16:42:49.204Z,76.63
2019-01-23T16:45:16.920Z,69.60
2019-01-23T16:47:44.029Z,79.37
2019-01-23T16:50:14.409Z,73.13
2019-01-23T16:52:41.687Z,76.17
2019-01-23T16:55:09.003Z,81.80
2019-01-23T16:57:36.206Z,79.30
2019-01-23T17:00:06.167Z,74.77
2019-01-23T17:02:38.591Z,79.93
2019-01-23T17:05:06.334Z,83.00
2019-01-23T17:07:33.516Z,78.13
2019-01-23T17:10:00.940Z,80.17
2019-01-23T17:12:27.906Z,89.23
2019-01-23T17:14:55.231Z,82.67
2019-01-23T17:17:22.288Z,83.67
2019-01-23T17:19:49.278Z,81.03
2019-01-23T17:22:16.678Z,86.83
2019-01-23T17:24:43.755Z,80.03
2019-01-23T17:27:10.943Z,90.50
2019-01-23T17:29:38.019Z,92.47
2019-01-23T17:32:05.515Z,86.03
2019-01-23T17:34:32.582Z,86.73
2019-01-23T17:36:59.714Z,91.77
2019-01-23T17:39:26.815Z,90.37
2019-01-23T17:41:54.041Z,86.87
2019-01-23T17:44:21.351Z,101.47
2019-01-23T17:46:48.619Z,89.23
2019-01-23T17:49:15.639Z,91.57
2019-01-23T17:51:42.757Z,91.83
2019-01-23T17:54:09.811Z,94.37
2019-01-23T17:56:36.958Z,89.93
2019-01-23T17:59:04.591Z,88.90
2019-01-23T18:01:32.020Z,86.37
2019-01-23T18:03:59.281Z,90.47
2019-01-23T18:06:26.315Z,99.27
2019-01-23T18:08:53.903Z,101.87
2019-01-23T18:11:20.954Z,104.53
2019-01-23T18:13:48.704Z,96.17
2019-01-23T18:16:15.816Z,93.87
2019-01-23T18:18:42.983Z,101.50
2019-01-23T18:21:10.564Z,92.07
2019-01-23T18:23:37.934Z,93.83
2019-01-23T18:26:05.027Z,99.90
2019-01-23T18:28:32.161Z,97.27
2019-01-23T18:31:41.459Z,97.27
2019-01-23T18:34:55.777Z,101.97
2019-01-23T18:37:59.765Z,91.53
2019-01-23T18:40:49.081Z,93.50
2019-01-23T18:43:51.856Z,98.80
2019-01-23T18:46:44.967Z,100.37
2019-01-23T18:49:37.159Z,105.77
2019-01-23T18:52:09.906Z,106.03
2019-01-23T18:54:37.165Z,92.03
2019-01-23T18:57:05.675Z,97.40
2019-01-23T18:59:33.104Z,100.20
2019-01-23T19:02:00.235Z,100.13
2019-01-23T19:04:27.337Z,101.57
2019-01-23T19:06:54.433Z,107.10
2019-01-23T19:09:21.967Z,100.67
2019-01-23T19:11:49.309Z,101.47
2019-01-23T19:14:16.937Z,102.40
2019-01-23T19:16:44.042Z,105.00
2019-01-23T19:19:11.042Z,102.80
2019-01-23T19:21:39.669Z,101.07
2019-01-23T19:24:06.707Z,115.13
2019-01-23T19:26:33.806Z,102.53
2019-01-23T19:29:01.288Z,98.83
2019-01-23T19:31:28.473Z,101.83
2019-01-23T19:33:55.919Z,110.30
2019-01-23T19:36:23.026Z,101.80
2019-01-23T19:38:50.150Z,103.23
2019-01-23T19:41:20.392Z,105.57
2019-01-23T19:43:46.110Z,104.80
2019-01-23T19:46:13.186Z,113.80
2019-01-23T19:48:41.533Z,97.80
2019-01-23T19:51:08.948Z,106.87
2019-01-23T19:53:36.300Z,103.73
2019-01-23T19:56:03.604Z,112.63
2019-01-23T19:58:30.666Z,113.43
2019-01-23T20:00:57.817Z,123.17
2019-01-23T20:03:25.751Z,115.47
2019-01-23T20:05:52.723Z,105.67
2019-01-23T20:08:19.955Z,103.03
2019-01-23T20:10:47.154Z,103.63
2019-01-23T20:13:14.126Z,108.67
2019-01-23T20:15:41.396Z,102.53
2019-01-23T20:18:09.222Z,117.50
2019-01-23T20:20:36.352Z,112.40
2019-01-23T20:23:03.651Z,110.13
2019-01-23T20:25:31.209Z,113.73
2019-01-23T20:27:58.877Z,105.10
2019-01-23T20:30:37.693Z,109.47
2019-01-23T20:33:05.044Z,103.00
2019-01-23T20:35:32.138Z,119.40
2019-01-23T20:37:59.408Z,111.67
2019-01-23T20:40:26.533Z,119.57
2019-01-23T20:42:53.782Z,113.77
2019-01-23T20:45:21.095Z,119.30
2019-01-23T20:47:48.419Z,113.77
2019-01-23T20:50:23.982Z,107.63
2019-01-23T20:52:51.034Z,114.70
2019-01-23T20:55:18.339Z,116.23
2019-01-23T20:57:45.447Z,119.90
2019-01-23T21:00:15.755Z,127.13
2019-01-23T21:02:44.279Z,126.23
2019-01-23T21:05:11.624Z,113.07
2019-01-23T21:07:38.638Z,118.93
2019-01-23T21:10:08.007Z,118.13
2019-01-23T21:12:35.082Z,123.50
2019-01-23T21:15:02.204Z,112.00
2019-01-23T21:17:29.207Z,127.87
2019-01-23T21:19:56.216Z,124.30
2019-01-23T21:22:24.346Z,116.30
2019-01-23T21:24:51.574Z,129.80
2019-01-23T21:27:18.662Z,129.70
2019-01-23T21:29:45.754Z,118.77
2019-01-23T21:32:13.103Z,114.17
2019-01-23T21:34:40.097Z,122.23
2019-01-23T21:37:07.507Z,129.50
2019-01-23T21:39:35.918Z,132.80
2019-01-23T21:42:03.345Z,129.30
2019-01-23T21:44:30.331Z,126.77
2019-01-23T21:46:57.646Z,137.80
2019-01-23T21:49:24.655Z,118.27
2019-01-23T21:51:51.810Z,129.23
2019-01-23T21:54:19.147Z,129.07
2019-01-23T21:56:46.362Z,139.93
2019-01-23T21:59:13.793Z,139.47
2019-01-23T22:01:41.100Z,139.10
2019-01-23T22:04:08.674Z,130.90
2019-01-23T22:06:36.311Z,140.63
2019-01-23T22:09:07.050Z,143.30
2019-01-23T22:11:34.263Z,137.90
2019-01-23T22:14:01.553Z,137.43
2019-01-23T22:16:28.647Z,141.70
2019-01-23T22:18:55.799Z,135.00
2019-01-23T22:21:23.442Z,141.97
2019-01-23T22:23:50.632Z,134.87
2019-01-23T22:26:18.161Z,147.83
2019-01-23T22:28:45.620Z,138.33
2019-01-23T22:31:12.724Z,133.10
2019-01-23T22:33:39.783Z,116.43
2019-01-23T22:36:06.785Z,125.43
2019-01-23T22:38:33.859Z,131.23
2019-01-23T22:41:01.023Z,119.47
2019-01-23T22:43:31.099Z,137.07
2019-01-23T22:45:58.118Z,124.93
2019-01-23T22:48:25.276Z,140.57
2019-01-23T22:50:52.288Z,138.27
2019-01-23T22:53:19.378Z,141.53
2019-01-23T22:55:46.610Z,142.57
2019-01-23T22:58:13.875Z,135.70
2019-01-23T23:00:57.914Z,132.80
2019-01-23T23:03:24.990Z,136.60
2019-01-23T23:05:52.069Z,129.20
2019-01-23T23:08:19.069Z,141.03
2019-01-23T23:10:46.557Z,136.03
2019-01-23T23:13:13.839Z,124.57
2019-01-23T23:15:41.061Z,128.03
2019-01-23T23:18:08.213Z,129.70
2019-01-23T23:20:35.211Z,136.67
2019-01-23T23:23:02.512Z,136.47
2019-01-23T23:25:29.698Z,123.70
2019-01-23T23:27:56.773Z,135.83
2019-01-23T23:30:24.581Z,130.07
2019-01-23T23:32:51.694Z,142.47
2019-01-23T23:35:19.066Z,133.87
2019-01-23T23:37:46.306Z,116.10
2019-01-23T23:40:13.623Z,113.37
2019-01-23T23:42:41.187Z,128.50
2019-01-23T23:45:08.938Z,125.13
2019-01-23T23:47:36.047Z,127.20
2019-01-23T23:50:03.897Z,120.10
2019-01-23T23:52:31.014Z,121.30
2019-01-23T23:54:58.391Z,125.13
2019-01-23T23:57:25.688Z,101.90
2019-01-23T23:59:52.879Z,115.80
